Time;durP1;ratioP1;P1;durP2;ratioP2;P2;SDS_P1;SDS_P2;PMS_P1;PMS_P2;Temp;Humidity;BMP_temperature;BMP_pressure;BME280_temperature;BME280_humidity;BME280_pressure;Samples;Min_cycle;Max_cycle;Signal;HPM_P1;HPM_P2
2023/09/13 00:01:39;;;;;;;6.30;4.97;;;21.50;99.90;;;;;;5036818;28;20203;-66
2023/09/13 00:04:05;;;;;;;5.90;4.72;;;21.50;99.90;;;;;;5039545;28;20237;-67
2023/09/13 00:06:31;;;;;;;5.25;4.85;;;21.60;99.90;;;;;;5038225;28;20226;-67
2023/09/13 00:08:56;;;;;;;5.82;4.82;;;21.60;99.90;;;;;;5018830;28;20344;-68
2023/09/13 00:11:21;;;;;;;5.55;4.68;;;21.70;99.90;;;;;;5036002;28;20206;-68
2023/09/13 00:13:47;;;;;;;5.18;4.75;;;21.70;99.90;;;;;;5038606;28;20235;-67
2023/09/13 00:16:12;;;;;;;5.80;5.30;;;21.70;99.90;;;;;;5038291;28;20198;-66
2023/09/13 00:18:38;;;;;;;7.95;6.20;;;21.70;99.90;;;;;;5040323;28;20227;-71
2023/09/13 00:21:03;;;;;;;6.63;6.03;;;21.70;99.90;;;;;;5027898;28;20219;-70
2023/09/13 00:23:29;;;;;;;6.20;5.18;;;21.80;99.90;;;;;;5034934;28;20205;-68
2023/09/13 00:25:54;;;;;;;7.80;7.00;;;21.80;99.90;;;;;;5032503;28;20199;-69
2023/09/13 00:28:20;;;;;;;8.83;6.33;;;21.80;99.90;;;;;;5039840;28;20215;-68
2023/09/13 00:30:45;;;;;;;7.33;6.63;;;22.00;99.90;;;;;;5042237;28;20658;-67
2023/09/13 00:33:11;;;;;;;6.40;5.78;;;21.90;99.90;;;;;;5039542;28;20190;-68
2023/09/13 00:35:36;;;;;;;7.93;5.32;;;21.90;99.90;;;;;;5041395;28;20203;-68
2023/09/13 00:38:02;;;;;;;6.72;6.13;;;21.90;99.90;;;;;;5017931;28;20207;-68
2023/09/13 00:40:27;;;;;;;7.88;5.72;;;21.80;99.90;;;;;;5021235;28;20210;-68
2023/09/13 00:42:54;;;;;;;7.30;5.53;;;21.80;99.90;;;;;;5038541;28;20556;-68
2023/09/13 00:45:20;;;;;;;10.85;5.78;;;21.80;99.90;;;;;;5033414;28;20202;-68
2023/09/13 00:47:46;;;;;;;6.45;5.38;;;21.70;99.90;;;;;;5038234;28;20855;-68
2023/09/13 00:50:15;;;;;;;6.18;5.50;;;21.70;99.90;;;;;;5037493;28;20199;-67
2023/09/13 00:52:43;;;;;;;5.97;5.47;;;21.70;99.90;;;;;;5038489;28;20492;-60
2023/09/13 00:55:10;;;;;;;6.38;5.88;;;21.70;99.90;;;;;;5038278;28;20611;-60
2023/09/13 00:57:36;;;;;;;6.47;5.88;;;21.70;99.90;;;;;;5040351;28;20211;-60
2023/09/13 01:00:09;;;;;;;7.70;6.47;;;21.80;99.90;;;;;;5038426;28;20680;-60
2023/09/13 01:02:35;;;;;;;6.33;5.73;;;21.90;99.90;;;;;;5032774;28;20194;-59
2023/09/13 01:05:02;;;;;;;6.18;5.68;;;21.90;99.90;;;;;;5037252;28;20225;-60
2023/09/13 01:07:28;;;;;;;6.20;5.70;;;21.90;99.90;;;;;;5036507;28;20300;-60
2023/09/13 01:09:54;;;;;;;8.07;6.07;;;21.90;99.90;;;;;;5037484;28;20241;-60
2023/09/13 01:12:22;;;;;;;5.53;5.03;;;21.90;99.90;;;;;;5034592;28;20641;-60
2023/09/13 01:14:48;;;;;;;6.30;5.30;;;21.90;99.90;;;;;;5035389;28;20640;-60
2023/09/13 01:17:19;;;;;;;7.93;5.95;;;21.80;99.90;;;;;;5029392;28;20218;-60
2023/09/13 01:20:16;;;;;;;4.80;4.40;;;21.90;99.90;;;;;;5035285;28;20190;-60
2023/09/13 01:23:10;;;;;;;5.27;4.77;;;21.90;99.90;;;;;;5034911;28;20199;-60
2023/09/13 01:26:07;;;;;;;5.67;5.00;;;21.90;99.90;;;;;;5017946;28;20202;-60
2023/09/13 01:28:50;;;;;;;5.70;5.10;;;21.90;99.90;;;;;;5033512;28;20222;-61
2023/09/13 01:31:17;;;;;;;5.75;5.22;;;21.90;99.90;;;;;;5033629;28;20816;-60
2023/09/13 01:33:44;;;;;;;5.32;4.82;;;21.80;99.90;;;;;;5039096;28;20229;-59
2023/09/13 01:36:10;;;;;;;7.78;5.45;;;21.80;99.90;;;;;;5034875;28;20209;-57
2023/09/13 01:38:36;;;;;;;5.57;5.18;;;21.90;99.90;;;;;;5035264;28;20194;-58
2023/09/13 01:41:21;;;;;;;4.72;4.25;;;21.80;99.90;;;;;;5037070;28;20268;-59
2023/09/13 01:43:50;;;;;;;6.00;5.57;;;21.80;99.90;;;;;;5035501;28;20333;-59
2023/09/13 01:46:16;;;;;;;5.70;4.95;;;21.90;99.90;;;;;;5014824;28;20290;-60
2023/09/13 01:48:42;;;;;;;6.05;5.55;;;21.90;99.90;;;;;;5036797;28;20845;-59
2023/09/13 01:51:08;;;;;;;6.00;5.23;;;22.00;99.90;;;;;;5033957;28;20210;-60
2023/09/13 01:53:45;;;;;;;7.43;5.05;;;22.10;99.90;;;;;;5035386;28;20268;-61
2023/09/13 01:56:11;;;;;;;12.43;5.88;;;21.90;99.90;;;;;;5037907;28;20680;-60
2023/09/13 01:58:36;;;;;;;7.87;5.60;;;21.80;99.90;;;;;;5034419;28;21301;-63
2023/09/13 02:01:02;;;;;;;5.83;5.23;;;21.60;99.90;;;;;;5035611;28;20460;-58
2023/09/13 02:10:12;;;;;;;6.93;4.40;;;19.40;99.90;;;;;;5033086;28;20603;-66
2023/09/13 02:12:37;;;;;;;6.80;4.50;;;18.90;99.90;;;;;;5027599;28;20194;-67
2023/09/13 02:15:04;;;;;;;7.73;5.50;;;18.80;99.90;;;;;;5035009;28;20288;-67
2023/09/13 02:17:32;;;;;;;8.93;4.73;;;18.70;99.90;;;;;;5039136;28;20200;-65
2023/09/13 02:19:57;;;;;;;9.30;6.00;;;18.70;99.90;;;;;;5033935;28;20194;-63
2023/09/13 02:22:23;;;;;;;9.17;5.53;;;18.70;99.90;;;;;;5040352;28;20650;-64
2023/09/13 02:24:48;;;;;;;8.57;5.87;;;18.70;99.90;;;;;;5032623;28;20589;-65
2023/09/13 02:27:13;;;;;;;7.17;5.50;;;18.80;99.90;;;;;;5038096;28;20229;-67
2023/09/13 02:29:39;;;;;;;7.87;5.47;;;18.80;99.90;;;;;;5033976;28;20210;-66
2023/09/13 02:32:05;;;;;;;10.77;6.60;;;18.80;99.90;;;;;;5020794;28;20664;-67
2023/09/13 02:34:30;;;;;;;8.57;6.40;;;18.80;99.90;;;;;;5033092;28;20282;-68
2023/09/13 02:36:56;;;;;;;8.30;5.87;;;18.90;99.90;;;;;;5036634;28;20206;-66
2023/09/13 02:39:36;;;;;;;10.17;5.63;;;19.00;99.90;;;;;;5035466;28;20182;-66
2023/09/13 02:42:03;;;;;;;8.53;4.90;;;18.90;99.90;;;;;;5033389;28;20240;-68
2023/09/13 02:44:32;;;;;;;8.27;5.10;;;18.70;99.90;;;;;;5034345;28;20207;-65
2023/09/13 02:46:59;;;;;;;8.07;5.10;;;18.90;99.90;;;;;;5016175;28;20214;-65
2023/09/13 02:49:25;;;;;;;7.80;5.03;;;18.90;99.90;;;;;;5032272;28;20218;-65
2023/09/13 02:51:54;;;;;;;5.57;4.30;;;18.90;99.90;;;;;;5035368;28;20206;-65
2023/09/13 02:54:20;;;;;;;9.33;4.87;;;18.80;99.90;;;;;;5026671;28;20206;-68
2023/09/13 02:56:46;;;;;;;9.73;4.63;;;18.80;99.90;;;;;;5032917;28;20255;-67
2023/09/13 02:59:12;;;;;;;6.30;4.57;;;18.80;99.90;;;;;;5039940;28;20203;-60
2023/09/13 03:01:37;;;;;;;6.03;4.57;;;18.90;99.90;;;;;;5033245;28;20197;-61
2023/09/13 03:04:03;;;;;;;5.20;4.17;;;18.90;99.90;;;;;;5030941;28;20206;-69
2023/09/13 03:06:32;;;;;;;7.17;5.00;;;18.90;99.90;;;;;;5035496;28;20407;-67
2023/09/13 03:08:57;;;;;;;8.67;4.63;;;18.80;99.90;;;;;;5030661;28;20280;-66
2023/09/13 03:11:23;;;;;;;8.57;4.77;;;18.80;99.90;;;;;;5017581;28;20467;-67
2023/09/13 03:13:48;;;;;;;6.33;4.77;;;18.70;99.90;;;;;;5038260;28;20198;-67
2023/09/13 03:16:21;;;;;;;7.53;5.83;;;18.70;99.90;;;;;;5033068;28;20199;-62
2023/09/13 03:18:48;;;;;;;7.37;5.93;;;18.80;99.90;;;;;;5031238;28;20197;-62
2023/09/13 03:21:15;;;;;;;9.13;6.13;;;18.90;99.90;;;;;;5036884;28;20216;-62
2023/09/13 03:23:42;;;;;;;7.97;5.50;;;19.00;99.90;;;;;;5033150;28;20296;-61
2023/09/13 03:26:26;;;;;;;5.43;4.97;;;18.80;99.90;;;;;;5031368;28;20202;-62
2023/09/13 03:28:54;;;;;;;7.13;5.53;;;18.80;99.90;;;;;;5041415;28;20268;-62
2023/09/13 03:31:21;;;;;;;7.13;5.40;;;18.80;99.90;;;;;;5041175;28;20206;-63
2023/09/13 03:33:49;;;;;;;5.67;5.07;;;18.80;99.90;;;;;;5018692;28;20608;-66
2023/09/13 03:36:15;;;;;;;7.77;4.63;;;18.90;99.90;;;;;;5034769;28;20233;-64
2023/09/13 03:38:43;;;;;;;5.20;4.70;;;18.80;99.90;;;;;;5035528;28;20275;-64
2023/09/13 03:41:10;;;;;;;6.30;4.17;;;18.90;99.90;;;;;;5037236;28;20196;-66
2023/09/13 03:43:36;;;;;;;6.80;5.65;;;18.80;99.90;;;;;;5036891;28;20422;-67
2023/09/13 03:46:04;;;;;;;4.50;4.10;;;18.90;99.90;;;;;;5038221;28;20269;-67
2023/09/13 03:48:30;;;;;;;5.03;4.13;;;18.90;99.90;;;;;;5038194;28;20263;-66
2023/09/13 03:50:57;;;;;;;6.30;4.27;;;18.80;99.90;;;;;;5035722;28;20230;-68
2023/09/13 03:53:23;;;;;;;7.63;5.00;;;18.90;99.90;;;;;;5038184;28;20196;-67
2023/09/13 03:55:50;;;;;;;6.80;5.35;;;18.90;99.90;;;;;;5019887;28;20459;-64
2023/09/13 03:58:15;;;;;;;5.47;4.97;;;18.90;99.90;;;;;;5037694;28;20808;-63
2023/09/13 04:00:41;;;;;;;5.73;5.13;;;18.90;99.90;;;;;;5039084;28;20321;-63
2023/09/13 04:03:06;;;;;;;5.80;4.90;;;18.90;99.90;;;;;;5040443;28;20209;-63
2023/09/13 04:05:32;;;;;;;4.63;4.23;;;18.80;99.90;;;;;;5034534;28;20557;-68
2023/09/13 04:07:58;;;;;;;6.87;4.90;;;18.80;99.90;;;;;;5039644;28;20341;-68
2023/09/13 04:10:23;;;;;;;6.40;4.87;;;18.90;99.90;;;;;;5041041;28;20209;-62
2023/09/13 04:12:49;;;;;;;6.57;5.63;;;18.90;99.90;;;;;;5038801;28;20586;-61
2023/09/13 04:15:15;;;;;;;7.87;5.63;;;18.90;99.90;;;;;;5043098;28;20207;-62
2023/09/13 04:17:40;;;;;;;7.67;5.33;;;19.00;99.90;;;;;;5038569;28;20808;-62
2023/09/13 04:20:06;;;;;;;6.60;5.83;;;18.80;99.90;;;;;;5038896;28;20209;-69
2023/09/13 04:22:32;;;;;;;6.80;5.90;;;18.70;99.90;;;;;;5038060;28;20201;-62
2023/09/13 04:24:57;;;;;;;10.63;6.37;;;18.70;99.90;;;;;;5039784;28;20215;-62
2023/09/13 04:27:23;;;;;;;8.33;6.50;;;18.80;99.90;;;;;;5036344;28;20218;-62
2023/09/13 04:29:49;;;;;;;7.57;6.87;;;18.80;99.90;;;;;;5035917;28;20206;-61
2023/09/13 04:32:14;;;;;;;6.37;5.77;;;18.80;99.90;;;;;;5031815;28;20206;-62
2023/09/13 04:34:40;;;;;;;7.83;6.60;;;18.70;99.90;;;;;;5038966;28;20205;-62
2023/09/13 04:37:06;;;;;;;9.00;6.83;;;18.70;99.90;;;;;;5013553;28;20312;-64
2023/09/13 04:39:32;;;;;;;7.73;7.03;;;18.70;99.90;;;;;;5033384;28;20210;-63
2023/09/13 04:41:59;;;;;;;7.53;6.83;;;18.70;99.90;;;;;;5027739;28;20235;-64
2023/09/13 04:44:25;;;;;;;8.17;7.40;;;18.70;99.90;;;;;;5033974;28;20198;-62
2023/09/13 04:46:52;;;;;;;8.90;7.30;;;18.70;99.90;;;;;;5032472;28;20258;-66
2023/09/13 04:49:18;;;;;;;7.67;6.97;;;18.70;99.90;;;;;;5035370;28;20210;-68
2023/09/13 04:51:43;;;;;;;9.13;8.23;;;18.80;99.90;;;;;;5031098;28;20221;-66
2023/09/13 04:54:09;;;;;;;10.50;9.32;;;18.80;99.90;;;;;;5031602;28;20509;-64
2023/09/13 04:56:34;;;;;;;10.27;7.97;;;18.90;99.90;;;;;;5039324;28;20202;-65
2023/09/13 04:59:00;;;;;;;9.77;7.87;;;18.90;99.90;;;;;;5030187;28;20448;-69
2023/09/13 05:01:25;;;;;;;11.90;9.00;;;18.90;99.90;;;;;;5038772;28;20195;-69
2023/09/13 05:03:52;;;;;;;11.67;9.00;;;18.90;99.90;;;;;;5038511;28;20499;-68
2023/09/13 05:06:18;;;;;;;9.97;9.07;;;19.00;99.90;;;;;;5040038;28;20194;-68
2023/09/13 05:08:43;;;;;;;15.13;10.57;;;18.90;99.90;;;;;;5033734;28;20244;-69
2023/09/13 05:11:09;;;;;;;12.60;11.17;;;18.90;99.90;;;;;;5039054;28;20297;-69
2023/09/13 05:13:38;;;;;;;13.87;10.87;;;19.00;99.90;;;;;;5018731;28;20652;-61
2023/09/13 05:16:03;;;;;;;13.63;11.33;;;19.00;99.90;;;;;;5037104;28;20236;-62
2023/09/13 05:18:29;;;;;;;15.67;12.40;;;19.00;99.90;;;;;;5032645;28;20197;-62
2023/09/13 05:20:54;;;;;;;16.70;13.37;;;19.00;99.90;;;;;;5037972;28;20197;-63
2023/09/13 05:23:20;;;;;;;17.93;11.97;;;19.00;99.90;;;;;;5039359;28;20198;-63
2023/09/13 05:25:46;;;;;;;16.20;14.50;;;19.00;99.90;;;;;;5043262;28;20272;-63
2023/09/13 05:28:13;;;;;;;14.87;12.97;;;18.90;99.90;;;;;;5034845;28;20249;-63
2023/09/13 05:30:39;;;;;;;15.70;13.40;;;18.90;99.90;;;;;;5043691;28;20984;-63
2023/09/13 05:33:05;;;;;;;17.07;14.70;;;18.80;99.90;;;;;;5042808;28;20259;-66
2023/09/13 05:35:31;;;;;;;18.27;16.47;;;18.80;99.90;;;;;;5033474;28;20288;-66
2023/09/13 05:37:57;;;;;;;18.47;16.20;;;18.70;99.90;;;;;;5035284;28;20717;-62
2023/09/13 05:40:23;;;;;;;17.43;15.57;;;18.70;99.90;;;;;;5041289;28;20270;-64
2023/09/13 05:42:49;;;;;;;19.80;17.97;;;18.60;99.90;;;;;;5039635;28;20245;-64
2023/09/13 05:45:14;;;;;;;19.77;17.40;;;18.50;99.90;;;;;;5036549;28;20228;-63
2023/09/13 05:47:40;;;;;;;22.17;19.30;;;18.50;99.90;;;;;;5036605;28;20328;-63
2023/09/13 05:50:06;;;;;;;22.80;18.40;;;18.50;99.90;;;;;;5037529;28;20197;-63
2023/09/13 05:52:33;;;;;;;22.83;19.93;;;18.50;99.90;;;;;;5017430;28;20208;-63
2023/09/13 05:54:58;;;;;;;22.87;20.23;;;18.50;99.90;;;;;;5028759;28;20216;-63
2023/09/13 05:57:26;;;;;;;23.17;20.70;;;18.50;99.90;;;;;;5035521;28;20996;-63
2023/09/13 05:59:51;;;;;;;23.53;21.07;;;18.50;99.90;;;;;;5032657;28;20205;-63
2023/09/13 06:02:18;;;;;;;21.70;19.47;;;18.50;99.90;;;;;;5037801;28;20211;-63
2023/09/13 06:04:43;;;;;;;22.27;18.77;;;18.50;99.90;;;;;;5036174;28;20198;-63
2023/09/13 06:07:09;;;;;;;21.47;19.20;;;18.50;99.90;;;;;;5041566;28;20847;-63
2023/09/13 06:09:34;;;;;;;23.43;19.67;;;18.50;99.90;;;;;;5040890;28;20222;-63
2023/09/13 06:12:01;;;;;;;21.20;18.93;;;18.50;99.90;;;;;;5034297;28;20252;-65
2023/09/13 06:14:27;;;;;;;21.43;19.20;;;18.50;99.90;;;;;;5013934;28;20194;-62
2023/09/13 06:16:52;;;;;;;22.37;18.90;;;18.60;99.90;;;;;;5038015;28;20203;-62
2023/09/13 06:19:18;;;;;;;20.87;18.93;;;18.60;99.90;;;;;;5033554;28;20194;-61
2023/09/13 06:21:44;;;;;;;21.43;18.93;;;18.70;99.90;;;;;;5032893;28;20304;-62
2023/09/13 06:24:09;;;;;;;20.53;18.37;;;18.70;99.90;;;;;;5039765;28;20562;-66
2023/09/13 06:26:34;;;;;;;21.77;19.23;;;18.70;99.90;;;;;;5036025;28;20424;-65
2023/09/13 06:29:00;;;;;;;22.13;19.77;;;18.80;99.90;;;;;;5019529;28;20568;-68
2023/09/13 06:31:26;;;;;;;20.03;17.87;;;18.80;99.90;;;;;;5021351;28;20189;-71
2023/09/13 06:33:52;;;;;;;22.23;19.23;;;18.90;99.90;;;;;;5035760;28;20204;-71
2023/09/13 06:36:17;;;;;;;16.93;15.23;;;18.90;99.90;;;;;;5037872;28;20610;-68
2023/09/13 06:38:43;;;;;;;20.23;16.10;;;18.90;99.90;;;;;;5032534;28;20557;-68
2023/09/13 06:41:08;;;;;;;18.63;16.43;;;18.90;99.90;;;;;;5059058;28;20197;-68
2023/09/13 06:43:34;;;;;;;16.67;14.87;;;19.00;99.90;;;;;;5009428;28;20615;-67
2023/09/13 06:45:59;;;;;;;15.40;13.97;;;18.90;99.90;;;;;;5042720;28;20237;-67
2023/09/13 06:48:25;;;;;;;15.30;13.90;;;18.90;99.90;;;;;;5020210;28;20373;-67
2023/09/13 06:50:50;;;;;;;13.33;12.03;;;18.90;99.90;;;;;;5036403;28;20296;-67
2023/09/13 06:53:16;;;;;;;14.93;13.43;;;18.90;99.90;;;;;;5010085;28;20575;-66
2023/09/13 06:55:41;;;;;;;14.13;12.67;;;18.80;99.90;;;;;;5025410;28;20365;-66
2023/09/13 06:58:07;;;;;;;13.27;11.97;;;18.80;99.90;;;;;;5020647;28;20194;-67
2023/09/13 07:00:33;;;;;;;14.97;12.53;;;18.70;99.90;;;;;;5034944;28;20213;-66
2023/09/13 07:03:02;;;;;;;14.33;13.00;;;18.70;99.90;;;;;;5037860;28;20197;-66
2023/09/13 07:05:27;;;;;;;13.47;12.10;;;18.70;99.90;;;;;;5039150;28;20205;-66
2023/09/13 07:07:53;;;;;;;14.43;13.03;;;18.70;99.90;;;;;;5022917;28;21109;-66
2023/09/13 07:10:18;;;;;;;13.60;12.30;;;18.70;99.90;;;;;;5035084;28;20214;-66
2023/09/13 07:12:44;;;;;;;16.13;11.93;;;18.70;99.90;;;;;;5017251;28;20653;-67
2023/09/13 07:15:10;;;;;;;13.07;11.77;;;18.60;99.90;;;;;;5034724;28;20207;-66
2023/09/13 07:17:35;;;;;;;12.40;11.13;;;18.60;99.90;;;;;;5032681;28;20912;-66
2023/09/13 07:20:01;;;;;;;13.60;12.33;;;18.60;99.90;;;;;;5041450;28;20650;-66
2023/09/13 07:22:26;;;;;;;13.50;10.23;;;18.70;99.90;;;;;;5038241;28;20202;-66
2023/09/13 07:24:52;;;;;;;11.07;10.07;;;18.80;99.90;;;;;;5042613;28;20191;-66
2023/09/13 07:27:18;;;;;;;10.70;9.63;;;18.80;99.90;;;;;;5009293;28;20217;-66
2023/09/13 07:29:44;;;;;;;11.07;9.97;;;18.90;99.90;;;;;;5028023;28;20485;-66
2023/09/13 07:32:09;;;;;;;10.57;9.47;;;18.70;99.90;;;;;;5025677;28;20182;-66
2023/09/13 07:34:35;;;;;;;9.97;8.97;;;18.70;99.90;;;;;;5027598;28;20192;-66
2023/09/13 07:37:00;;;;;;;9.80;8.90;;;18.60;99.90;;;;;;5036934;28;20187;-66
2023/09/13 07:39:26;;;;;;;11.70;9.70;;;18.60;99.90;;;;;;5041218;28;20200;-67
2023/09/13 07:41:51;;;;;;;10.40;9.40;;;18.60;99.90;;;;;;5031703;28;20704;-65
2023/09/13 07:44:17;;;;;;;9.23;8.33;;;18.60;99.90;;;;;;5024349;28;20244;-64
2023/09/13 07:46:43;;;;;;;10.13;9.13;;;18.70;99.90;;;;;;5030036;28;20174;-69
2023/09/13 07:49:08;;;;;;;10.80;9.70;;;18.70;99.90;;;;;;5033303;28;20238;-61
2023/09/13 07:51:34;;;;;;;12.03;9.40;;;18.70;99.90;;;;;;5029065;28;20597;-66
2023/09/13 07:54:07;;;;;;;8.07;7.40;;;18.90;99.90;;;;;;5044122;28;20209;-64
2023/09/13 07:56:34;;;;;;;8.13;7.47;;;19.00;99.90;;;;;;5031842;28;20493;-61
2023/09/13 07:59:00;;;;;;;9.23;8.20;;;19.00;99.90;;;;;;5014311;28;20232;-63
2023/09/13 08:01:25;;;;;;;10.03;8.37;;;18.90;99.90;;;;;;5034185;28;20772;-63
2023/09/13 08:03:51;;;;;;;8.93;8.20;;;19.00;99.90;;;;;;5029915;28;20233;-63
2023/09/13 08:06:16;;;;;;;9.23;8.27;;;19.00;99.90;;;;;;5041642;28;20669;-62
2023/09/13 08:08:42;;;;;;;9.20;8.40;;;19.10;99.90;;;;;;5040733;28;20240;-67
2023/09/13 08:11:07;;;;;;;8.53;7.73;;;19.20;99.90;;;;;;5039474;28;20214;-68
2023/09/13 08:13:33;;;;;;;9.27;8.37;;;19.20;99.90;;;;;;5028333;28;20294;-63
2023/09/13 08:15:58;;;;;;;9.83;8.33;;;19.20;99.90;;;;;;5043141;28;20280;-67
2023/09/13 08:18:23;;;;;;;9.47;7.33;;;19.20;99.90;;;;;;5035527;28;20212;-66
2023/09/13 08:20:50;;;;;;;8.20;7.43;;;19.20;99.90;;;;;;5041258;28;20215;-65
2023/09/13 08:23:16;;;;;;;8.40;7.70;;;19.10;99.90;;;;;;5038574;28;20210;-65
2023/09/13 08:25:42;;;;;;;8.23;7.43;;;19.20;99.90;;;;;;5018510;28;20762;-66
2023/09/13 08:28:08;;;;;;;6.37;5.77;;;19.30;99.90;;;;;;5039983;28;20677;-67
2023/09/13 08:30:34;;;;;;;8.40;6.80;;;19.30;99.90;;;;;;5036413;28;20249;-66
2023/09/13 08:32:59;;;;;;;7.67;6.80;;;19.40;99.90;;;;;;5009988;28;20216;-65
2023/09/13 08:35:25;;;;;;;6.40;5.80;;;19.40;99.90;;;;;;5045998;28;20634;-65
2023/09/13 08:37:51;;;;;;;7.53;6.47;;;19.50;99.90;;;;;;5030565;28;20200;-61
2023/09/13 08:40:16;;;;;;;6.70;4.30;;;19.60;99.90;;;;;;5031588;28;20624;-63
2023/09/13 08:42:43;;;;;;;6.07;4.83;;;19.60;99.90;;;;;;5025872;28;20202;-64
2023/09/13 08:45:09;;;;;;;5.17;4.77;;;19.50;99.90;;;;;;5034571;28;20206;-67
2023/09/13 08:47:38;;;;;;;4.43;4.13;;;19.60;99.90;;;;;;5035172;28;20239;-65
2023/09/13 08:50:06;;;;;;;4.57;4.13;;;19.60;99.90;;;;;;5033083;28;20253;-62
2023/09/13 08:52:35;;;;;;;7.33;4.90;;;19.70;99.90;;;;;;5027539;28;20648;-65
2023/09/13 08:55:01;;;;;;;6.93;4.83;;;19.80;99.90;;;;;;5020797;28;20286;-62
2023/09/13 08:57:28;;;;;;;5.30;4.80;;;19.90;99.90;;;;;;5018254;28;20460;-61
2023/09/13 08:59:54;;;;;;;6.90;4.30;;;19.90;99.90;;;;;;5036111;28;20204;-61
2023/09/13 09:02:23;;;;;;;4.00;3.60;;;19.80;99.90;;;;;;5029926;28;20197;-61
2023/09/13 09:04:50;;;;;;;4.67;4.27;;;19.90;99.90;;;;;;5044376;28;20206;-61
2023/09/13 09:07:18;;;;;;;8.07;4.00;;;20.00;99.90;;;;;;5042909;28;20214;-61
2023/09/13 09:09:46;;;;;;;4.53;3.83;;;20.10;99.90;;;;;;5040585;28;20219;-63
2023/09/13 09:12:17;;;;;;;3.93;3.03;;;20.00;99.90;;;;;;5019949;28;20252;-64
2023/09/13 09:14:45;;;;;;;3.42;3.10;;;20.10;99.90;;;;;;5039888;28;20423;-62
2023/09/13 09:17:13;;;;;;;3.93;2.97;;;20.00;99.90;;;;;;5040924;28;20353;-65
2023/09/13 09:19:39;;;;;;;3.00;2.57;;;20.10;99.90;;;;;;5041673;28;20214;-66
2023/09/13 09:22:04;;;;;;;6.90;3.43;;;20.10;99.90;;;;;;5036787;28;20283;-67
2023/09/13 09:24:32;;;;;;;3.67;2.60;;;19.90;99.90;;;;;;5042724;28;20188;-62
2023/09/13 09:26:57;;;;;;;2.97;2.67;;;19.80;99.90;;;;;;5038513;28;20221;-66
2023/09/13 09:29:35;;;;;;;2.73;2.53;;;19.80;99.90;;;;;;5033333;28;20212;-59
2023/09/13 09:32:02;;;;;;;2.80;2.60;;;19.60;99.90;;;;;;5034130;28;20725;-61
2023/09/13 09:34:31;;;;;;;3.70;3.27;;;19.60;99.90;;;;;;5038661;28;20212;-60
2023/09/13 09:37:07;;;;;;;3.40;3.20;;;19.60;99.90;;;;;;5011041;28;20205;-60
2023/09/13 09:39:39;;;;;;;3.00;2.80;;;19.80;99.90;;;;;;5034080;28;20189;-62
2023/09/13 09:42:05;;;;;;;4.00;3.30;;;19.70;99.90;;;;;;5030740;28;20212;-65
2023/09/13 09:44:31;;;;;;;3.40;2.97;;;19.50;99.90;;;;;;5037834;28;20888;-62
2023/09/13 09:46:57;;;;;;;3.77;2.83;;;19.60;99.90;;;;;;5040221;28;20305;-62
2023/09/13 09:49:23;;;;;;;3.37;3.10;;;19.80;99.90;;;;;;5038864;28;20194;-62
2023/09/13 09:51:49;;;;;;;4.00;3.60;;;19.80;99.90;;;;;;5042309;28;20243;-62
2023/09/13 09:54:14;;;;;;;3.67;3.47;;;19.90;99.90;;;;;;5032444;28;20197;-61
2023/09/13 09:56:40;;;;;;;4.30;3.90;;;19.60;99.90;;;;;;5039275;28;20205;-61
2023/09/13 09:59:06;;;;;;;3.97;3.67;;;19.70;99.90;;;;;;5014753;28;20293;-63
2023/09/13 10:01:31;;;;;;;3.83;3.57;;;19.90;99.90;;;;;;5036330;28;20210;-61
2023/09/13 10:04:08;;;;;;;4.53;4.13;;;19.90;99.90;;;;;;5033657;28;20214;-62
2023/09/13 10:06:33;;;;;;;3.40;3.20;;;19.90;99.90;;;;;;5029854;28;20197;-63
2023/09/13 10:08:59;;;;;;;6.30;4.43;;;19.80;99.90;;;;;;5035123;28;20229;-63
2023/09/13 10:11:25;;;;;;;3.60;3.30;;;19.80;99.90;;;;;;5035994;28;20210;-62
2023/09/13 10:13:52;;;;;;;3.73;3.43;;;19.90;99.90;;;;;;5013911;28;20200;-64
2023/09/13 10:16:18;;;;;;;3.77;3.47;;;19.90;99.90;;;;;;5039851;28;20197;-64
2023/09/13 10:18:48;;;;;;;6.23;3.97;;;20.10;99.90;;;;;;5044282;28;20271;-64
2023/09/13 10:21:19;;;;;;;4.40;3.57;;;20.10;99.90;;;;;;5033319;28;20198;-62
2023/09/13 10:23:49;;;;;;;3.20;2.97;;;20.10;99.90;;;;;;5017635;28;20204;-62
2023/09/13 10:26:18;;;;;;;3.40;3.13;;;20.20;99.90;;;;;;5018221;28;20705;-64
2023/09/13 10:28:49;;;;;;;3.53;3.20;;;20.10;99.90;;;;;;5040610;28;20208;-64
2023/09/13 10:31:31;;;;;;;5.10;3.40;;;20.20;99.90;;;;;;5040663;28;20343;-67
2023/09/13 10:34:02;;;;;;;3.63;3.33;;;20.30;99.90;;;;;;5034015;28;20197;-65
2023/09/13 10:36:33;;;;;;;3.93;3.50;;;20.30;99.90;;;;;;5018299;28;20222;-62
2023/09/13 10:39:40;;;;;;;6.00;3.40;;;20.50;99.90;;;;;;5038766;28;20273;-64
2023/09/13 10:42:10;;;;;;;2.80;2.60;;;20.50;99.90;;;;;;4973271;28;20770;-63
2023/09/13 10:44:37;;;;;;;3.30;3.00;;;20.60;99.90;;;;;;5005223;28;20202;-64
2023/09/13 10:47:07;;;;;;;3.00;2.80;;;20.70;99.90;;;;;;5033957;28;20226;-63
2023/09/13 10:49:36;;;;;;;3.47;3.23;;;20.80;99.90;;;;;;5031201;28;20203;-64
2023/09/13 10:52:03;;;;;;;3.70;2.83;;;21.00;99.90;;;;;;5015179;28;20341;-64
2023/09/13 10:54:32;;;;;;;2.90;2.70;;;20.90;99.90;;;;;;5035540;28;20241;-65
2023/09/13 10:56:58;;;;;;;3.13;2.83;;;20.80;99.90;;;;;;5032526;28;20206;-62
2023/09/13 10:59:25;;;;;;;3.40;2.83;;;21.00;99.90;;;;;;5033567;28;20210;-63
2023/09/13 11:01:51;;;;;;;2.90;2.57;;;21.10;99.90;;;;;;5035490;28;20203;-59
2023/09/13 11:04:19;;;;;;;3.00;2.77;;;21.10;99.90;;;;;;5038587;28;20723;-59
2023/09/13 11:06:46;;;;;;;3.37;2.60;;;21.10;99.90;;;;;;5015041;28;20210;-59
2023/09/13 11:09:13;;;;;;;3.60;2.90;;;21.40;99.90;;;;;;5033144;28;20195;-59
2023/09/13 11:11:44;;;;;;;4.23;2.47;;;21.40;99.90;;;;;;5034881;28;20316;-59
2023/09/13 11:14:11;;;;;;;2.90;2.70;;;21.40;99.90;;;;;;5031458;28;20191;-59
2023/09/13 11:16:39;;;;;;;2.70;2.50;;;21.50;99.90;;;;;;5035531;28;20744;-62
2023/09/13 11:19:10;;;;;;;3.03;2.70;;;21.50;99.90;;;;;;5034898;28;20208;-60
2023/09/13 11:21:46;;;;;;;3.73;2.30;;;21.40;99.90;;;;;;5020893;28;20209;-60
2023/09/13 11:24:12;;;;;;;3.60;2.73;;;21.50;99.90;;;;;;5032815;28;20216;-60
2023/09/13 11:26:44;;;;;;;2.57;2.37;;;21.30;99.90;;;;;;5034469;28;20214;-59
2023/09/13 11:29:26;;;;;;;2.27;2.17;;;21.30;99.90;;;;;;5031003;28;20260;-60
2023/09/13 11:32:06;;;;;;;2.63;2.43;;;21.30;99.90;;;;;;5016193;28;20205;-61
2023/09/13 11:34:37;;;;;;;4.20;3.37;;;21.10;99.90;;;;;;5036191;28;20213;-62
2023/09/13 11:37:10;;;;;;;5.83;3.43;;;20.70;99.90;;;;;;5016492;28;20214;-65
2023/09/13 11:39:35;;;;;;;5.97;3.90;;;20.60;99.90;;;;;;5032182;28;20234;-62
2023/09/13 11:42:04;;;;;;;4.60;3.60;;;20.20;99.90;;;;;;5033586;28;20238;-61
2023/09/13 11:44:30;;;;;;;3.50;3.20;;;20.00;99.90;;;;;;5035111;28;20195;-65
2023/09/13 11:46:55;;;;;;;4.43;4.03;;;19.90;99.90;;;;;;5036169;28;20197;-61
2023/09/13 11:49:25;;;;;;;4.83;4.43;;;19.80;99.90;;;;;;5013346;28;20242;-61
2023/09/13 11:51:57;;;;;;;5.30;4.80;;;19.70;99.90;;;;;;5034758;28;20313;-62
2023/09/13 11:54:24;;;;;;;4.80;4.50;;;19.80;99.90;;;;;;5036935;28;20286;-62
2023/09/13 11:56:54;;;;;;;4.77;4.27;;;19.80;99.90;;;;;;5034853;28;20190;-63
2023/09/13 11:59:24;;;;;;;4.23;3.83;;;19.80;99.90;;;;;;5035442;28;20294;-63
2023/09/13 12:01:50;;;;;;;4.23;3.90;;;19.80;99.90;;;;;;5037733;28;20198;-62
2023/09/13 12:04:16;;;;;;;3.83;3.47;;;19.70;99.90;;;;;;5028353;28;20208;-61
2023/09/13 12:06:49;;;;;;;3.67;3.37;;;19.70;99.90;;;;;;5027999;28;20301;-60
2023/09/13 12:09:19;;;;;;;4.60;4.20;;;19.70;99.90;;;;;;5039470;28;20221;-61
2023/09/13 12:11:49;;;;;;;6.70;4.03;;;19.60;99.90;;;;;;5031200;28;20214;-61
2023/09/13 12:14:15;;;;;;;4.53;3.83;;;19.60;99.90;;;;;;5033365;28;20199;-60
2023/09/13 12:16:42;;;;;;;4.90;4.50;;;19.70;99.90;;;;;;5031806;28;20217;-60
2023/09/13 12:19:09;;;;;;;4.80;4.40;;;19.70;99.90;;;;;;5034593;28;20570;-61
2023/09/13 12:21:35;;;;;;;4.23;3.83;;;19.90;99.90;;;;;;5033987;28;20208;-60
2023/09/13 12:24:00;;;;;;;3.67;3.33;;;20.00;99.90;;;;;;5045811;28;20209;-61
2023/09/13 12:26:27;;;;;;;5.50;3.20;;;20.10;99.90;;;;;;5032208;28;20277;-61
2023/09/13 12:28:53;;;;;;;4.77;4.33;;;20.10;99.90;;;;;;5024661;28;20241;-60
2023/09/13 12:31:20;;;;;;;4.53;3.20;;;20.00;99.90;;;;;;5035476;28;20648;-62
2023/09/13 12:33:54;;;;;;;3.63;3.33;;;20.00;99.90;;;;;;5033627;28;21087;-62
2023/09/13 12:36:20;;;;;;;4.87;4.47;;;20.10;99.90;;;;;;5036012;28;20232;-62
2023/09/13 12:38:48;;;;;;;3.97;3.67;;;20.10;99.90;;;;;;5043746;28;20245;-62
2023/09/13 12:41:19;;;;;;;3.43;3.23;;;20.00;99.90;;;;;;5034478;28;20708;-63
2023/09/13 12:43:48;;;;;;;3.70;3.33;;;20.00;99.90;;;;;;5037604;28;20201;-63
2023/09/13 12:46:16;;;;;;;4.80;4.20;;;20.00;99.90;;;;;;5033011;28;20606;-62
2023/09/13 12:48:43;;;;;;;4.10;3.77;;;20.00;99.90;;;;;;5014372;28;20226;-61
2023/09/13 12:51:09;;;;;;;4.13;3.37;;;20.20;99.90;;;;;;5035987;28;20734;-62